createdAt,value
2022-12-16T00:01:35.406Z,1.60
2022-12-16T00:04:02.915Z,0.60
2022-12-16T00:06:32.734Z,0.90
2022-12-16T00:09:01.129Z,0.60
2022-12-16T00:11:28.918Z,1.30
2022-12-16T00:13:56.126Z,0.70
2022-12-16T00:16:23.488Z,0.50
2022-12-16T00:18:51.912Z,0.40
2022-12-16T00:21:20.349Z,0.20
2022-12-16T00:23:48.226Z,0.20
2022-12-16T00:26:15.594Z,0.30
2022-12-16T00:28:45.605Z,0.10
2022-12-16T00:31:13.032Z,0.20
2022-12-16T00:33:40.883Z,0.30
2022-12-16T00:36:08.829Z,0.20
2022-12-16T00:38:36.101Z,0.30
2022-12-16T00:41:03.498Z,0.30
2022-12-16T00:43:31.137Z,0.20
2022-12-16T00:45:58.794Z,0.30
2022-12-16T00:48:26.143Z,0.20
2022-12-16T00:50:55.139Z,0.20
2022-12-16T00:53:24.964Z,0.20
2022-12-16T00:56:01.250Z,0.20
2022-12-16T00:58:28.525Z,0.20
2022-12-16T01:00:55.860Z,0.20
2022-12-16T01:03:23.310Z,0.20
2022-12-16T01:05:50.737Z,0.20
2022-12-16T01:08:18.038Z,0.20
2022-12-16T01:10:53.347Z,0.20
2022-12-16T01:13:24.905Z,0.00
2022-12-16T01:15:53.092Z,0.10
2022-12-16T01:18:20.921Z,0.00
2022-12-16T01:20:48.214Z,0.50
2022-12-16T01:23:15.564Z,0.10
2022-12-16T01:25:42.809Z,0.10
2022-12-16T01:28:10.205Z,0.20
2022-12-16T01:30:37.489Z,0.40
2022-12-16T01:33:04.904Z,0.30
2022-12-16T01:38:19.533Z,0.00
2022-12-16T01:40:46.757Z,0.60
2022-12-16T01:43:14.855Z,0.10
2022-12-16T01:45:42.873Z,0.00
2022-12-16T01:48:31.349Z,0.50
2022-12-16T01:51:04.553Z,-0.40
2022-12-16T01:53:32.880Z,0.00
2022-12-16T01:56:01.293Z,-0.10
2022-12-16T01:58:32.850Z,0.00
2022-12-16T02:01:02.263Z,0.00
2022-12-16T02:03:33.751Z,-0.10
2022-12-16T02:06:02.722Z,-0.10
2022-12-16T02:08:30.273Z,-0.10
2022-12-16T02:11:12.667Z,-0.10
2022-12-16T02:14:06.578Z,0.00
2022-12-16T02:16:47.987Z,-0.10
2022-12-16T02:19:34.091Z,0.10
2022-12-16T02:22:58.035Z,0.10
2022-12-16T02:25:36.644Z,-0.10
2022-12-16T02:28:08.445Z,-0.10
2022-12-16T02:30:38.652Z,0.00
2022-12-16T02:33:18.199Z,0.00
2022-12-16T02:35:52.093Z,0.00
2022-12-16T02:38:30.785Z,0.20
2022-12-16T02:41:09.296Z,-0.20
2022-12-16T02:43:50.866Z,0.00
2022-12-16T02:46:19.185Z,-0.10
2022-12-16T02:48:46.423Z,-0.20
2022-12-16T02:51:13.807Z,-0.10
2022-12-16T02:53:43.502Z,-0.20
2022-12-16T02:56:25.658Z,-0.10
2022-12-16T02:59:11.500Z,-0.10
2022-12-16T03:01:47.602Z,-0.10
2022-12-16T03:04:38.807Z,0.20
2022-12-16T03:07:10.895Z,-0.10
2022-12-16T03:09:40.657Z,-0.10
2022-12-16T03:12:12.888Z,0.00
2022-12-16T03:14:43.597Z,0.00
2022-12-16T03:17:12.882Z,0.00
2022-12-16T03:19:44.104Z,-0.10
2022-12-16T03:22:16.555Z,0.00
2022-12-16T03:24:43.872Z,0.00
2022-12-16T03:27:25.668Z,0.00
2022-12-16T03:29:58.772Z,0.00
2022-12-16T03:32:46.907Z,-0.40
2022-12-16T03:35:28.681Z,-0.10
2022-12-16T03:37:58.270Z,0.00
2022-12-16T03:40:28.408Z,-0.10
2022-12-16T03:42:56.947Z,0.00
2022-12-16T03:45:29.146Z,0.00
2022-12-16T03:47:59.150Z,0.20
2022-12-16T03:50:31.781Z,-0.10
2022-12-16T03:52:59.497Z,0.00
2022-12-16T03:55:26.764Z,-0.10
2022-12-16T03:57:54.045Z,-0.10
2022-12-16T04:00:21.560Z,-0.10
2022-12-16T04:02:49.237Z,-0.10
2022-12-16T04:05:17.428Z,-0.10
2022-12-16T04:07:44.697Z,-0.10
2022-12-16T04:10:12.236Z,-0.20
2022-12-16T04:12:58.017Z,-0.20
2022-12-16T04:15:43.800Z,-0.30
2022-12-16T04:18:35.219Z,-0.30
2022-12-16T04:21:21.885Z,-0.30
2022-12-16T04:24:10.862Z,-0.20
2022-12-16T04:26:56.589Z,-0.50
2022-12-16T04:29:24.198Z,-0.50
2022-12-16T04:31:52.855Z,-0.60
2022-12-16T04:34:29.288Z,-0.60
2022-12-16T04:37:17.995Z,-0.70
2022-12-16T04:40:04.525Z,-0.70
2022-12-16T04:42:50.836Z,-1.00
2022-12-16T04:45:36.802Z,-1.10
2022-12-16T04:48:22.775Z,-1.00
2022-12-16T04:51:08.528Z,-1.20
2022-12-16T04:53:54.332Z,-0.80
2022-12-16T04:56:40.382Z,-1.30
2022-12-16T04:59:26.298Z,-1.20
2022-12-16T05:02:12.205Z,-1.60
2022-12-16T05:04:58.133Z,-1.50
2022-12-16T05:07:44.255Z,-1.50
2022-12-16T05:10:30.081Z,-1.50
2022-12-16T05:13:16.420Z,-1.40
2022-12-16T05:16:02.216Z,-1.70
2022-12-16T05:21:34.109Z,-1.60
2022-12-16T05:24:20.109Z,-1.60
2022-12-16T05:27:08.829Z,-1.70
2022-12-16T05:29:54.453Z,-1.60
2022-12-16T05:32:40.523Z,-1.70
2022-12-16T05:35:26.639Z,-1.70
2022-12-16T05:38:12.522Z,-1.80
2022-12-16T05:40:58.549Z,-1.70
2022-12-16T05:43:44.425Z,-1.80
2022-12-16T05:49:16.832Z,-1.90
2022-12-16T05:52:02.728Z,-1.90
2022-12-16T05:57:35.111Z,-2.10
2022-12-16T06:00:21.253Z,-1.70
2022-12-16T06:03:08.515Z,-2.00
2022-12-16T06:05:54.370Z,-1.90
2022-12-16T06:08:40.375Z,-1.90
2022-12-16T06:11:26.513Z,-1.80
2022-12-16T06:14:12.405Z,-1.90
2022-12-16T06:16:58.684Z,-2.30
2022-12-16T06:19:45.097Z,-1.90
2022-12-16T06:22:30.697Z,-1.90
2022-12-16T06:25:16.522Z,-1.90
2022-12-16T06:28:07.465Z,-1.80
2022-12-16T06:30:53.377Z,-2.10
2022-12-16T06:33:42.585Z,-1.90
2022-12-16T06:36:28.831Z,-1.90
2022-12-16T06:39:14.637Z,-2.10
2022-12-16T06:42:00.580Z,-2.10
2022-12-16T06:44:46.617Z,-2.10
2022-12-16T06:47:32.561Z,-2.20
2022-12-16T06:50:18.632Z,-2.20
2022-12-16T06:55:51.268Z,-2.10
2022-12-16T06:58:37.018Z,-2.00
2022-12-16T07:01:22.914Z,-2.10
2022-12-16T07:09:42.517Z,-2.20
2022-12-16T07:12:28.638Z,-2.20
2022-12-16T07:15:14.766Z,-2.60
2022-12-16T07:18:00.469Z,-2.10
2022-12-16T07:23:33.066Z,-2.10
2022-12-16T07:26:19.020Z,-2.00
2022-12-16T07:29:04.681Z,-2.10
2022-12-16T07:34:40.788Z,-2.10
2022-12-16T07:40:14.934Z,-2.30
2022-12-16T07:43:04.207Z,-2.10
2022-12-16T07:51:23.007Z,-2.10
2022-12-16T08:02:29.484Z,-2.10
2022-12-16T08:05:15.324Z,-2.00
2022-12-16T08:08:01.562Z,-2.10
2022-12-16T08:10:47.513Z,-2.10
2022-12-16T08:13:34.009Z,-2.10
2022-12-16T08:16:20.510Z,-2.10
2022-12-16T08:19:26.154Z,-2.20
2022-12-16T08:22:12.102Z,-2.10
2022-12-16T08:24:57.715Z,-2.10
2022-12-16T08:27:43.546Z,-2.10
2022-12-16T08:30:30.295Z,-2.00
2022-12-16T08:33:19.559Z,-2.00
2022-12-16T08:36:17.563Z,-1.80
2022-12-16T08:39:03.611Z,-2.10
2022-12-16T08:41:49.489Z,-1.80
2022-12-16T08:44:35.463Z,-2.10
2022-12-16T08:47:21.537Z,-1.90
2022-12-16T08:50:07.912Z,-1.80
2022-12-16T08:52:54.024Z,-1.90
2022-12-16T08:55:39.981Z,-1.90
2022-12-16T08:58:26.081Z,-1.80
2022-12-16T09:01:11.915Z,-1.80
2022-12-16T09:03:57.766Z,-2.00
2022-12-16T09:06:43.893Z,-2.00
2022-12-16T09:09:30.508Z,-1.90
2022-12-16T09:17:48.865Z,-1.70
2022-12-16T09:20:34.647Z,-1.50
2022-12-16T09:23:21.480Z,-1.50
2022-12-16T09:26:07.525Z,-1.60
2022-12-16T09:28:53.119Z,-1.50
2022-12-16T09:31:40.650Z,-1.40
2022-12-16T09:37:13.037Z,-1.20
2022-12-16T09:42:45.168Z,-1.40
2022-12-16T09:45:53.235Z,-1.10
2022-12-16T09:49:02.397Z,-1.00
2022-12-16T09:51:48.828Z,-0.60
2022-12-16T09:54:38.958Z,-1.00
2022-12-16T09:57:27.022Z,-0.90
2022-12-16T10:00:21.018Z,-1.00
2022-12-16T10:03:08.796Z,-0.90
2022-12-16T10:06:18.506Z,-0.80
2022-12-16T10:09:27.168Z,-0.70
2022-12-16T10:12:21.280Z,-0.60
2022-12-16T10:15:17.807Z,0.10
2022-12-16T10:18:04.860Z,-0.30
2022-12-16T10:21:05.473Z,-0.50
2022-12-16T10:24:11.961Z,-0.50
2022-12-16T10:27:16.956Z,-0.60
2022-12-16T10:30:05.335Z,-0.50
2022-12-16T10:32:58.680Z,-0.20
2022-12-16T10:35:52.816Z,-0.30
2022-12-16T10:38:50.979Z,-0.20
2022-12-16T10:41:37.778Z,-0.10
2022-12-16T10:44:31.303Z,-0.10
2022-12-16T10:47:17.056Z,0.00
2022-12-16T10:50:19.960Z,0.20
2022-12-16T10:53:15.166Z,0.20
2022-12-16T10:56:19.932Z,0.40
2022-12-16T10:59:14.086Z,0.60
2022-12-16T11:02:00.227Z,0.60
2022-12-16T11:04:55.781Z,0.90
2022-12-16T11:07:52.805Z,1.00
2022-12-16T11:10:44.496Z,1.30
2022-12-16T11:13:36.077Z,1.30
2022-12-16T11:16:37.779Z,1.70
2022-12-16T11:19:37.059Z,2.10
2022-12-16T11:22:42.298Z,2.30
2022-12-16T11:25:31.247Z,2.60
2022-12-16T11:28:25.960Z,2.60
2022-12-16T11:31:14.628Z,3.00
2022-12-16T11:34:02.660Z,3.00
2022-12-16T11:36:51.851Z,3.30
2022-12-16T11:39:41.769Z,3.70
2022-12-16T11:42:35.578Z,3.90
2022-12-16T11:45:23.589Z,4.60
2022-12-16T11:48:42.470Z,4.40
2022-12-16T11:51:32.520Z,4.70
2022-12-16T11:54:42.152Z,4.80
2022-12-16T11:57:52.077Z,4.80
2022-12-16T12:00:38.959Z,4.90
2022-12-16T12:03:37.967Z,5.50
2022-12-16T12:06:41.861Z,5.50
2022-12-16T12:09:40.951Z,5.80
2022-12-16T12:12:38.632Z,6.10
2022-12-16T12:15:39.475Z,6.20
2022-12-16T12:18:53.196Z,6.20
2022-12-16T12:21:45.930Z,6.20
2022-12-16T12:24:57.973Z,6.40
2022-12-16T12:27:57.197Z,6.20
2022-12-16T12:30:43.529Z,6.00
2022-12-16T12:34:07.212Z,6.70
2022-12-16T12:37:06.196Z,5.80
2022-12-16T12:40:06.630Z,5.80
2022-12-16T12:43:07.269Z,5.70
2022-12-16T12:46:25.904Z,5.60
2022-12-16T12:49:22.671Z,6.00
2022-12-16T12:52:31.047Z,6.50
2022-12-16T12:55:35.114Z,6.90
2022-12-16T12:58:22.021Z,7.20
2022-12-16T13:01:14.536Z,7.60
2022-12-16T13:04:13.117Z,7.80
2022-12-16T13:06:59.599Z,8.00
2022-12-16T13:09:54.223Z,8.20
2022-12-16T13:12:42.392Z,8.00
2022-12-16T13:15:28.042Z,7.90
2022-12-16T13:18:19.608Z,8.00
2022-12-16T13:21:07.090Z,9.50
2022-12-16T13:24:10.826Z,8.50
2022-12-16T13:27:20.431Z,8.90
2022-12-16T13:30:35.658Z,9.20
2022-12-16T13:34:07.238Z,9.60
2022-12-16T13:36:54.507Z,9.10
2022-12-16T13:39:42.509Z,9.50
2022-12-16T13:43:06.078Z,9.70
2022-12-16T13:45:55.456Z,9.60
2022-12-16T13:48:51.337Z,10.00
2022-12-16T13:51:52.302Z,10.10
2022-12-16T13:54:38.996Z,10.80
2022-12-16T13:57:29.005Z,9.80
2022-12-16T14:00:15.141Z,9.70
2022-12-16T14:03:02.110Z,9.60
2022-12-16T14:05:52.177Z,9.60
2022-12-16T14:08:43.390Z,9.70
2022-12-16T14:11:41.442Z,10.10
2022-12-16T14:14:32.993Z,10.30
2022-12-16T14:17:23.029Z,10.00
2022-12-16T14:20:24.514Z,10.80
2022-12-16T14:23:55.815Z,9.90
2022-12-16T14:26:38.914Z,10.00
2022-12-16T14:29:40.431Z,10.10
2022-12-16T14:32:46.818Z,9.80
2022-12-16T14:35:39.080Z,9.90
2022-12-16T14:38:45.087Z,9.70
2022-12-16T14:41:39.027Z,9.60
2022-12-16T14:44:37.109Z,9.70
2022-12-16T14:47:23.417Z,9.80
2022-12-16T14:50:11.523Z,9.90
2022-12-16T14:52:58.535Z,9.60
2022-12-16T14:55:52.627Z,9.70
2022-12-16T14:58:41.227Z,9.40
2022-12-16T15:01:47.774Z,9.30
2022-12-16T15:04:38.063Z,9.10
2022-12-16T15:07:31.210Z,8.30
2022-12-16T15:10:18.777Z,8.30
2022-12-16T15:13:07.608Z,8.00
2022-12-16T15:15:56.430Z,8.10
2022-12-16T15:18:59.148Z,7.70
2022-12-16T15:21:45.132Z,7.30
2022-12-16T15:24:37.697Z,6.90
2022-12-16T15:27:42.619Z,6.30
2022-12-16T15:30:52.400Z,6.10
2022-12-16T15:33:45.713Z,5.40
2022-12-16T15:36:45.536Z,5.30
2022-12-16T15:39:55.460Z,4.70
2022-12-16T15:42:48.088Z,4.50
2022-12-16T15:45:44.696Z,4.10
2022-12-16T15:48:32.343Z,3.90
2022-12-16T15:51:18.155Z,3.70
2022-12-16T15:54:04.205Z,3.60
2022-12-16T15:57:02.274Z,3.60
2022-12-16T15:59:50.790Z,3.40
2022-12-16T16:02:39.710Z,3.30
2022-12-16T16:05:40.869Z,3.10
2022-12-16T16:08:29.708Z,3.20
2022-12-16T16:11:15.669Z,2.90
2022-12-16T16:14:07.223Z,3.00
2022-12-16T16:16:55.338Z,2.70
2022-12-16T16:19:45.436Z,3.50
2022-12-16T16:22:33.916Z,3.00
2022-12-16T16:25:19.897Z,2.80
2022-12-16T16:28:05.981Z,2.50
2022-12-16T16:30:52.108Z,2.70
2022-12-16T16:33:38.048Z,2.40
2022-12-16T16:36:34.696Z,2.50
2022-12-16T16:39:20.772Z,2.30
2022-12-16T16:42:06.500Z,2.40
2022-12-16T16:44:52.333Z,2.30
2022-12-16T16:47:38.155Z,2.30
2022-12-16T16:50:25.456Z,2.30
2022-12-16T16:53:11.422Z,2.20
2022-12-16T16:55:57.453Z,2.20
2022-12-16T16:58:48.708Z,2.10
2022-12-16T17:01:36.895Z,2.10
2022-12-16T17:04:23.568Z,1.90
2022-12-16T17:07:09.418Z,2.10
2022-12-16T17:09:56.266Z,1.90
2022-12-16T17:12:45.109Z,1.90
2022-12-16T17:15:40.319Z,1.70
2022-12-16T17:18:26.643Z,1.70
2022-12-16T17:21:12.985Z,1.70
2022-12-16T17:23:58.972Z,1.50
2022-12-16T17:26:45.505Z,1.80
2022-12-16T17:29:43.097Z,1.70
2022-12-16T17:32:29.842Z,1.70
2022-12-16T17:35:16.272Z,1.40
2022-12-16T17:38:02.581Z,1.80
2022-12-16T17:40:48.739Z,1.40
2022-12-16T17:43:34.848Z,1.40
2022-12-16T17:46:26.463Z,1.30
2022-12-16T17:49:14.289Z,1.30
2022-12-16T17:52:00.675Z,1.40
2022-12-16T17:54:46.914Z,1.60
2022-12-16T17:57:32.931Z,1.60
2022-12-16T18:00:18.925Z,0.90
2022-12-16T18:03:04.989Z,1.10
2022-12-16T18:05:51.237Z,1.10
2022-12-16T18:08:37.174Z,1.20
2022-12-16T18:11:23.141Z,1.10
2022-12-16T18:14:09.093Z,1.30
2022-12-16T18:16:55.097Z,1.10
2022-12-16T18:19:40.983Z,1.00
2022-12-16T18:22:27.015Z,1.00
2022-12-16T18:25:12.950Z,1.00
2022-12-16T18:27:58.945Z,0.90
2022-12-16T18:30:44.813Z,1.00
2022-12-16T18:33:31.015Z,0.90
2022-12-16T18:36:17.193Z,0.80
2022-12-16T18:39:03.236Z,1.00
2022-12-16T18:41:48.819Z,0.80
2022-12-16T18:44:35.656Z,1.10
2022-12-16T18:47:21.379Z,1.00
2022-12-16T18:50:07.313Z,1.20
2022-12-16T18:52:53.387Z,0.80
2022-12-16T18:55:39.498Z,0.80
2022-12-16T18:58:50.182Z,0.90
2022-12-16T19:01:31.587Z,0.80
2022-12-16T19:04:17.931Z,0.80
2022-12-16T19:07:04.040Z,0.70
2022-12-16T19:09:49.989Z,0.70
2022-12-16T19:12:35.774Z,1.00
2022-12-16T19:15:21.488Z,0.80
2022-12-16T19:18:07.472Z,0.80
2022-12-16T19:20:53.415Z,0.80
2022-12-16T19:23:39.475Z,0.60
2022-12-16T19:26:25.416Z,0.50
2022-12-16T19:29:11.361Z,0.60
2022-12-16T19:31:57.055Z,0.60
2022-12-16T19:34:42.949Z,0.50
2022-12-16T19:37:28.827Z,0.30
2022-12-16T19:40:14.889Z,0.50
2022-12-16T19:43:00.558Z,0.60
2022-12-16T19:45:46.338Z,0.50
2022-12-16T19:48:32.121Z,0.30
2022-12-16T19:51:19.588Z,0.60
2022-12-16T19:54:06.068Z,0.40
2022-12-16T19:56:53.696Z,0.40
2022-12-16T19:59:41.393Z,0.50
2022-12-16T20:02:31.222Z,0.50
2022-12-16T20:05:17.225Z,0.10
2022-12-16T20:08:03.321Z,0.10
2022-12-16T20:10:49.238Z,0.10
2022-12-16T20:16:23.736Z,0.30
2022-12-16T20:19:09.893Z,0.10
2022-12-16T20:21:56.388Z,0.10
2022-12-16T20:24:43.575Z,0.10
2022-12-16T20:27:30.081Z,0.20
2022-12-16T20:30:15.965Z,0.00
2022-12-16T20:33:01.884Z,-0.20
2022-12-16T20:35:47.982Z,0.30
2022-12-16T20:38:34.045Z,0.20
2022-12-16T20:41:22.130Z,-0.10
2022-12-16T20:44:09.844Z,0.10
2022-12-16T20:46:56.702Z,-0.10
2022-12-16T20:49:42.455Z,-0.20
2022-12-16T20:52:28.428Z,-0.10
2022-12-16T20:55:14.117Z,-0.10
2022-12-16T20:58:00.151Z,0.00
2022-12-16T21:00:46.257Z,0.00
2022-12-16T21:03:32.321Z,0.00
2022-12-16T21:06:18.102Z,-0.10
2022-12-16T21:09:04.177Z,-0.20
2022-12-16T21:11:50.148Z,-0.30
2022-12-16T21:14:35.920Z,-0.30
2022-12-16T21:17:22.106Z,-0.30
2022-12-16T21:20:07.730Z,-0.50
2022-12-16T21:28:30.319Z,-0.50
2022-12-16T21:31:18.825Z,-0.30
2022-12-16T21:34:04.924Z,-0.40
2022-12-16T21:36:50.660Z,0.20
2022-12-16T21:39:37.654Z,-0.20
2022-12-16T21:42:23.595Z,-0.40
2022-12-16T21:45:09.493Z,-0.50
2022-12-16T21:50:41.801Z,-0.20
2022-12-16T21:53:29.427Z,-0.20
2022-12-16T21:59:02.638Z,-0.50
2022-12-16T22:01:48.442Z,-0.30
2022-12-16T22:04:34.309Z,-0.40
2022-12-16T22:07:20.517Z,-0.20
2022-12-16T22:15:42.203Z,-0.30
2022-12-16T22:18:28.315Z,-0.50
2022-12-16T22:21:16.447Z,-0.60
2022-12-16T22:24:02.956Z,-0.50
2022-12-16T22:26:48.688Z,-0.70
2022-12-16T22:29:34.898Z,-0.80
2022-12-16T22:32:21.862Z,-0.80
2022-12-16T22:35:07.416Z,-0.80
2022-12-16T22:37:53.653Z,-0.70
2022-12-16T22:40:42.990Z,-0.70
2022-12-16T22:46:20.239Z,-0.80
2022-12-16T22:49:07.011Z,-0.90
2022-12-16T22:51:53.964Z,-0.90
2022-12-16T22:54:39.736Z,-0.60
2022-12-16T22:57:25.793Z,-0.50
2022-12-16T23:02:57.793Z,-0.60
2022-12-16T23:08:30.205Z,-0.90
2022-12-16T23:11:17.308Z,-0.70
2022-12-16T23:14:03.090Z,-0.90
2022-12-16T23:19:35.195Z,-1.00
2022-12-16T23:22:21.059Z,-0.90
2022-12-16T23:25:07.026Z,-1.10
2022-12-16T23:27:53.097Z,-1.00
2022-12-16T23:30:39.537Z,-1.00
2022-12-16T23:33:25.474Z,-1.00
2022-12-16T23:36:11.395Z,-0.70
2022-12-16T23:38:57.105Z,-1.00
2022-12-16T23:41:43.204Z,-1.00
2022-12-16T23:44:29.276Z,-0.90
2022-12-16T23:47:15.112Z,-1.20
2022-12-16T23:50:01.200Z,-1.00
2022-12-16T23:52:47.335Z,-1.10
2022-12-16T23:55:33.032Z,-1.30
2022-12-16T23:58:21.016Z,-0.50
